sensor_id;sensor_type;location;lat;lon;timestamp;P1;durP1;ratioP1;P2;durP2;ratioP2
2488;SDS011;1255;48.716;9.124;2023-05-07T00:00:40;2.43;;;2.23;;
2488;SDS011;1255;48.716;9.124;2023-05-07T00:03:07;2.83;;;2.47;;
2488;SDS011;1255;48.716;9.124;2023-05-07T00:05:34;4.50;;;3.23;;
2488;SDS011;1255;48.716;9.124;2023-05-07T00:08:01;2.87;;;2.57;;
2488;SDS011;1255;48.716;9.124;2023-05-07T00:10:27;5.05;;;4.07;;
2488;SDS011;1255;48.716;9.124;2023-05-07T00:12:54;13.60;;;7.00;;
2488;SDS011;1255;48.716;9.124;2023-05-07T00:15:22;5.10;;;4.60;;
2488;SDS011;1255;48.716;9.124;2023-05-07T00:17:49;4.68;;;4.25;;
2488;SDS011;1255;48.716;9.124;2023-05-07T00:20:15;6.20;;;3.73;;
2488;SDS011;1255;48.716;9.124;2023-05-07T00:22:42;5.87;;;4.40;;
2488;SDS011;1255;48.716;9.124;2023-05-07T00:25:09;6.03;;;4.07;;
2488;SDS011;1255;48.716;9.124;2023-05-07T00:27:36;3.00;;;2.70;;
2488;SDS011;1255;48.716;9.124;2023-05-07T00:30:03;3.10;;;2.80;;
2488;SDS011;1255;48.716;9.124;2023-05-07T00:32:31;2.57;;;2.37;;
2488;SDS011;1255;48.716;9.124;2023-05-07T00:34:58;2.83;;;2.50;;
2488;SDS011;1255;48.716;9.124;2023-05-07T00:37:25;3.23;;;2.47;;
2488;SDS011;1255;48.716;9.124;2023-05-07T00:39:51;2.57;;;2.37;;
2488;SDS011;1255;48.716;9.124;2023-05-07T00:42:18;2.60;;;2.40;;
2488;SDS011;1255;48.716;9.124;2023-05-07T00:44:45;3.08;;;2.50;;
2488;SDS011;1255;48.716;9.124;2023-05-07T00:47:12;2.58;;;2.38;;
2488;SDS011;1255;48.716;9.124;2023-05-07T00:49:42;3.40;;;2.67;;
2488;SDS011;1255;48.716;9.124;2023-05-07T00:52:11;2.33;;;2.13;;
2488;SDS011;1255;48.716;9.124;2023-05-07T00:54:40;2.97;;;2.40;;
2488;SDS011;1255;48.716;9.124;2023-05-07T00:57:08;7.67;;;2.40;;
2488;SDS011;1255;48.716;9.124;2023-05-07T00:59:36;2.55;;;2.35;;
2488;SDS011;1255;48.716;9.124;2023-05-07T01:02:03;2.80;;;2.10;;
2488;SDS011;1255;48.716;9.124;2023-05-07T01:04:29;2.90;;;2.60;;
2488;SDS011;1255;48.716;9.124;2023-05-07T01:06:57;2.37;;;2.00;;
2488;SDS011;1255;48.716;9.124;2023-05-07T01:09:26;2.47;;;2.27;;
2488;SDS011;1255;48.716;9.124;2023-05-07T01:11:54;2.80;;;2.60;;
2488;SDS011;1255;48.716;9.124;2023-05-07T01:14:22;2.63;;;2.43;;
2488;SDS011;1255;48.716;9.124;2023-05-07T01:16:50;2.30;;;2.10;;
2488;SDS011;1255;48.716;9.124;2023-05-07T01:19:18;2.93;;;2.40;;
2488;SDS011;1255;48.716;9.124;2023-05-07T01:21:46;2.90;;;2.40;;
2488;SDS011;1255;48.716;9.124;2023-05-07T01:24:16;2.77;;;2.30;;
2488;SDS011;1255;48.716;9.124;2023-05-07T01:26:43;2.20;;;2.00;;
2488;SDS011;1255;48.716;9.124;2023-05-07T01:29:10;2.80;;;2.10;;
2488;SDS011;1255;48.716;9.124;2023-05-07T01:31:37;2.20;;;2.00;;
2488;SDS011;1255;48.716;9.124;2023-05-07T01:34:04;3.60;;;2.63;;
2488;SDS011;1255;48.716;9.124;2023-05-07T01:36:33;2.67;;;2.42;;
2488;SDS011;1255;48.716;9.124;2023-05-07T01:39:00;3.58;;;3.05;;
2488;SDS011;1255;48.716;9.124;2023-05-07T01:41:30;3.47;;;3.17;;
2488;SDS011;1255;48.716;9.124;2023-05-07T01:43:57;3.63;;;2.38;;
2488;SDS011;1255;48.716;9.124;2023-05-07T01:46:25;3.65;;;2.53;;
2488;SDS011;1255;48.716;9.124;2023-05-07T01:48:52;5.10;;;2.75;;
2488;SDS011;1255;48.716;9.124;2023-05-07T01:51:19;4.03;;;2.97;;
2488;SDS011;1255;48.716;9.124;2023-05-07T01:53:47;3.17;;;2.70;;
2488;SDS011;1255;48.716;9.124;2023-05-07T01:56:15;3.47;;;2.47;;
2488;SDS011;1255;48.716;9.124;2023-05-07T01:58:44;2.47;;;2.28;;
2488;SDS011;1255;48.716;9.124;2023-05-07T02:01:10;5.93;;;2.53;;
2488;SDS011;1255;48.716;9.124;2023-05-07T02:03:37;3.17;;;2.75;;
2488;SDS011;1255;48.716;9.124;2023-05-07T02:06:04;2.90;;;2.70;;
2488;SDS011;1255;48.716;9.124;2023-05-07T02:08:31;2.50;;;2.30;;
2488;SDS011;1255;48.716;9.124;2023-05-07T02:10:58;3.58;;;2.60;;
2488;SDS011;1255;48.716;9.124;2023-05-07T02:13:25;2.40;;;2.20;;
2488;SDS011;1255;48.716;9.124;2023-05-07T02:15:54;3.45;;;2.72;;
2488;SDS011;1255;48.716;9.124;2023-05-07T02:18:20;2.42;;;2.22;;
2488;SDS011;1255;48.716;9.124;2023-05-07T02:20:47;3.07;;;2.80;;
2488;SDS011;1255;48.716;9.124;2023-05-07T02:23:13;2.40;;;2.20;;
2488;SDS011;1255;48.716;9.124;2023-05-07T02:25:40;3.03;;;2.30;;
2488;SDS011;1255;48.716;9.124;2023-05-07T02:28:07;3.47;;;2.40;;
2488;SDS011;1255;48.716;9.124;2023-05-07T02:30:33;2.60;;;2.40;;
2488;SDS011;1255;48.716;9.124;2023-05-07T02:33:01;2.85;;;2.63;;
2488;SDS011;1255;48.716;9.124;2023-05-07T02:35:28;2.70;;;2.50;;
2488;SDS011;1255;48.716;9.124;2023-05-07T02:37:55;2.40;;;2.20;;
2488;SDS011;1255;48.716;9.124;2023-05-07T02:40:22;2.35;;;2.15;;
2488;SDS011;1255;48.716;9.124;2023-05-07T02:42:48;2.55;;;2.35;;
2488;SDS011;1255;48.716;9.124;2023-05-07T02:45:15;3.40;;;2.60;;
2488;SDS011;1255;48.716;9.124;2023-05-07T02:47:42;3.30;;;2.30;;
2488;SDS011;1255;48.716;9.124;2023-05-07T02:50:10;4.68;;;2.63;;
2488;SDS011;1255;48.716;9.124;2023-05-07T02:52:37;2.43;;;2.23;;
2488;SDS011;1255;48.716;9.124;2023-05-07T02:55:04;2.13;;;1.92;;
2488;SDS011;1255;48.716;9.124;2023-05-07T02:57:32;2.60;;;2.40;;
2488;SDS011;1255;48.716;9.124;2023-05-07T02:59:58;3.10;;;2.33;;
2488;SDS011;1255;48.716;9.124;2023-05-07T03:02:25;2.53;;;2.33;;
2488;SDS011;1255;48.716;9.124;2023-05-07T03:04:51;2.30;;;2.10;;
2488;SDS011;1255;48.716;9.124;2023-05-07T03:07:19;2.33;;;2.13;;
2488;SDS011;1255;48.716;9.124;2023-05-07T03:09:46;2.95;;;2.65;;
2488;SDS011;1255;48.716;9.124;2023-05-07T03:12:13;2.65;;;2.40;;
2488;SDS011;1255;48.716;9.124;2023-05-07T03:14:39;2.53;;;2.33;;
2488;SDS011;1255;48.716;9.124;2023-05-07T03:17:06;3.78;;;2.70;;
2488;SDS011;1255;48.716;9.124;2023-05-07T03:19:32;3.20;;;2.72;;
2488;SDS011;1255;48.716;9.124;2023-05-07T03:21:59;2.47;;;1.90;;
2488;SDS011;1255;48.716;9.124;2023-05-07T03:24:27;2.40;;;2.20;;
2488;SDS011;1255;48.716;9.124;2023-05-07T03:26:54;2.42;;;2.22;;
2488;SDS011;1255;48.716;9.124;2023-05-07T03:29:22;2.72;;;2.53;;
2488;SDS011;1255;48.716;9.124;2023-05-07T03:31:49;3.05;;;2.33;;
2488;SDS011;1255;48.716;9.124;2023-05-07T03:34:16;2.60;;;2.20;;
2488;SDS011;1255;48.716;9.124;2023-05-07T03:36:46;2.40;;;2.20;;
2488;SDS011;1255;48.716;9.124;2023-05-07T03:39:13;2.75;;;2.08;;
2488;SDS011;1255;48.716;9.124;2023-05-07T03:41:41;2.03;;;1.92;;
2488;SDS011;1255;48.716;9.124;2023-05-07T03:44:08;2.35;;;2.10;;
2488;SDS011;1255;48.716;9.124;2023-05-07T03:46:35;2.33;;;2.13;;
2488;SDS011;1255;48.716;9.124;2023-05-07T03:49:01;2.47;;;2.28;;
2488;SDS011;1255;48.716;9.124;2023-05-07T03:51:28;2.95;;;2.38;;
2488;SDS011;1255;48.716;9.124;2023-05-07T03:53:55;3.83;;;2.53;;
2488;SDS011;1255;48.716;9.124;2023-05-07T03:56:22;2.55;;;2.35;;
2488;SDS011;1255;48.716;9.124;2023-05-07T03:58:52;2.47;;;2.20;;
2488;SDS011;1255;48.716;9.124;2023-05-07T04:01:19;3.38;;;2.33;;
2488;SDS011;1255;48.716;9.124;2023-05-07T04:03:46;3.00;;;2.70;;
2488;SDS011;1255;48.716;9.124;2023-05-07T04:06:12;2.30;;;2.10;;
2488;SDS011;1255;48.716;9.124;2023-05-07T04:08:39;2.40;;;2.20;;
2488;SDS011;1255;48.716;9.124;2023-05-07T04:11:06;2.13;;;1.95;;
2488;SDS011;1255;48.716;9.124;2023-05-07T04:13:33;2.38;;;2.17;;
2488;SDS011;1255;48.716;9.124;2023-05-07T04:16:01;1.92;;;1.83;;
2488;SDS011;1255;48.716;9.124;2023-05-07T04:18:28;2.08;;;1.88;;
2488;SDS011;1255;48.716;9.124;2023-05-07T04:20:55;2.65;;;2.42;;
2488;SDS011;1255;48.716;9.124;2023-05-07T04:23:22;2.55;;;2.35;;
2488;SDS011;1255;48.716;9.124;2023-05-07T04:25:48;2.10;;;1.98;;
2488;SDS011;1255;48.716;9.124;2023-05-07T04:28:17;2.50;;;2.30;;
2488;SDS011;1255;48.716;9.124;2023-05-07T04:30:44;5.00;;;2.67;;
2488;SDS011;1255;48.716;9.124;2023-05-07T04:33:13;2.53;;;2.33;;
2488;SDS011;1255;48.716;9.124;2023-05-07T04:35:41;1.75;;;1.65;;
2488;SDS011;1255;48.716;9.124;2023-05-07T04:38:07;2.15;;;1.95;;
2488;SDS011;1255;48.716;9.124;2023-05-07T04:40:35;2.40;;;2.20;;
2488;SDS011;1255;48.716;9.124;2023-05-07T04:43:02;2.45;;;2.25;;
2488;SDS011;1255;48.716;9.124;2023-05-07T04:45:29;2.55;;;2.20;;
2488;SDS011;1255;48.716;9.124;2023-05-07T04:47:56;2.55;;;2.25;;
2488;SDS011;1255;48.716;9.124;2023-05-07T04:50:24;2.75;;;2.55;;
2488;SDS011;1255;48.716;9.124;2023-05-07T04:52:50;2.42;;;2.22;;
2488;SDS011;1255;48.716;9.124;2023-05-07T04:55:17;2.03;;;1.83;;
2488;SDS011;1255;48.716;9.124;2023-05-07T04:57:44;3.53;;;2.75;;
2488;SDS011;1255;48.716;9.124;2023-05-07T05:00:11;3.08;;;2.58;;
2488;SDS011;1255;48.716;9.124;2023-05-07T05:02:39;3.10;;;2.80;;
2488;SDS011;1255;48.716;9.124;2023-05-07T05:05:06;2.22;;;2.03;;
2488;SDS011;1255;48.716;9.124;2023-05-07T05:10:12;2.42;;;2.22;;
2488;SDS011;1255;48.716;9.124;2023-05-07T05:12:39;2.25;;;2.05;;
2488;SDS011;1255;48.716;9.124;2023-05-07T05:15:06;2.35;;;2.13;;
2488;SDS011;1255;48.716;9.124;2023-05-07T05:17:35;2.60;;;2.40;;
2488;SDS011;1255;48.716;9.124;2023-05-07T05:20:02;2.53;;;2.30;;
2488;SDS011;1255;48.716;9.124;2023-05-07T05:22:29;3.20;;;2.30;;
2488;SDS011;1255;48.716;9.124;2023-05-07T05:24:56;2.20;;;2.00;;
2488;SDS011;1255;48.716;9.124;2023-05-07T05:27:24;2.42;;;2.22;;
2488;SDS011;1255;48.716;9.124;2023-05-07T05:29:51;4.65;;;2.30;;
2488;SDS011;1255;48.716;9.124;2023-05-07T05:32:18;2.20;;;2.00;;
2488;SDS011;1255;48.716;9.124;2023-05-07T05:34:45;2.40;;;2.20;;
2488;SDS011;1255;48.716;9.124;2023-05-07T05:37:11;2.00;;;1.80;;
2488;SDS011;1255;48.716;9.124;2023-05-07T05:39:38;3.17;;;2.63;;
2488;SDS011;1255;48.716;9.124;2023-05-07T05:42:05;2.50;;;2.23;;
2488;SDS011;1255;48.716;9.124;2023-05-07T05:44:33;4.43;;;3.03;;
2488;SDS011;1255;48.716;9.124;2023-05-07T05:46:59;3.50;;;2.90;;
2488;SDS011;1255;48.716;9.124;2023-05-07T05:49:26;2.70;;;2.47;;
2488;SDS011;1255;48.716;9.124;2023-05-07T05:51:53;2.63;;;2.43;;
2488;SDS011;1255;48.716;9.124;2023-05-07T05:54:20;5.50;;;2.70;;
2488;SDS011;1255;48.716;9.124;2023-05-07T05:56:47;2.53;;;2.33;;
2488;SDS011;1255;48.716;9.124;2023-05-07T05:59:14;3.50;;;2.77;;
2488;SDS011;1255;48.716;9.124;2023-05-07T06:01:42;4.00;;;3.03;;
2488;SDS011;1255;48.716;9.124;2023-05-07T06:04:09;2.37;;;2.17;;
2488;SDS011;1255;48.716;9.124;2023-05-07T06:06:36;2.83;;;2.63;;
2488;SDS011;1255;48.716;9.124;2023-05-07T06:09:02;3.30;;;2.33;;
2488;SDS011;1255;48.716;9.124;2023-05-07T06:11:29;2.53;;;2.33;;
2488;SDS011;1255;48.716;9.124;2023-05-07T06:13:57;3.87;;;2.47;;
2488;SDS011;1255;48.716;9.124;2023-05-07T06:16:24;2.80;;;2.60;;
2488;SDS011;1255;48.716;9.124;2023-05-07T06:18:52;2.50;;;2.30;;
2488;SDS011;1255;48.716;9.124;2023-05-07T06:21:19;2.57;;;2.33;;
2488;SDS011;1255;48.716;9.124;2023-05-07T06:23:45;3.20;;;2.90;;
2488;SDS011;1255;48.716;9.124;2023-05-07T06:26:12;3.50;;;3.20;;
2488;SDS011;1255;48.716;9.124;2023-05-07T06:28:39;3.60;;;3.10;;
2488;SDS011;1255;48.716;9.124;2023-05-07T06:31:12;3.10;;;2.70;;
2488;SDS011;1255;48.716;9.124;2023-05-07T06:33:40;3.70;;;3.30;;
2488;SDS011;1255;48.716;9.124;2023-05-07T06:36:08;3.70;;;2.47;;
2488;SDS011;1255;48.716;9.124;2023-05-07T06:38:35;3.00;;;2.47;;
2488;SDS011;1255;48.716;9.124;2023-05-07T06:41:02;3.43;;;2.20;;
2488;SDS011;1255;48.716;9.124;2023-05-07T06:43:29;3.10;;;2.80;;
2488;SDS011;1255;48.716;9.124;2023-05-07T06:45:55;3.20;;;2.90;;
2488;SDS011;1255;48.716;9.124;2023-05-07T06:48:22;2.77;;;2.40;;
2488;SDS011;1255;48.716;9.124;2023-05-07T06:50:49;3.30;;;3.00;;
2488;SDS011;1255;48.716;9.124;2023-05-07T06:53:17;3.00;;;2.70;;
2488;SDS011;1255;48.716;9.124;2023-05-07T06:55:44;4.30;;;2.60;;
2488;SDS011;1255;48.716;9.124;2023-05-07T06:58:11;3.90;;;3.40;;
2488;SDS011;1255;48.716;9.124;2023-05-07T07:00:38;2.80;;;2.50;;
2488;SDS011;1255;48.716;9.124;2023-05-07T07:03:05;5.90;;;2.70;;
2488;SDS011;1255;48.716;9.124;2023-05-07T07:05:32;3.13;;;2.83;;
2488;SDS011;1255;48.716;9.124;2023-05-07T07:07:59;2.23;;;2.03;;
2488;SDS011;1255;48.716;9.124;2023-05-07T07:10:27;4.00;;;2.87;;
2488;SDS011;1255;48.716;9.124;2023-05-07T07:12:53;2.80;;;2.60;;
2488;SDS011;1255;48.716;9.124;2023-05-07T07:15:20;3.80;;;3.23;;
2488;SDS011;1255;48.716;9.124;2023-05-07T07:17:47;3.10;;;2.80;;
2488;SDS011;1255;48.716;9.124;2023-05-07T07:20:14;4.43;;;2.70;;
2488;SDS011;1255;48.716;9.124;2023-05-07T07:22:41;3.70;;;3.13;;
2488;SDS011;1255;48.716;9.124;2023-05-07T07:25:08;3.90;;;3.40;;
2488;SDS011;1255;48.716;9.124;2023-05-07T07:27:37;5.17;;;2.80;;
2488;SDS011;1255;48.716;9.124;2023-05-07T07:30:05;3.10;;;2.90;;
2488;SDS011;1255;48.716;9.124;2023-05-07T07:32:32;6.53;;;2.90;;
2488;SDS011;1255;48.716;9.124;2023-05-07T07:35:00;4.63;;;3.60;;
2488;SDS011;1255;48.716;9.124;2023-05-07T07:37:27;4.77;;;3.40;;
2488;SDS011;1255;48.716;9.124;2023-05-07T07:39:54;3.40;;;3.10;;
2488;SDS011;1255;48.716;9.124;2023-05-07T07:42:21;3.30;;;3.00;;
2488;SDS011;1255;48.716;9.124;2023-05-07T07:44:49;3.80;;;2.97;;
2488;SDS011;1255;48.716;9.124;2023-05-07T07:47:16;3.30;;;2.80;;
2488;SDS011;1255;48.716;9.124;2023-05-07T07:49:42;3.90;;;3.07;;
2488;SDS011;1255;48.716;9.124;2023-05-07T07:52:09;3.80;;;2.93;;
2488;SDS011;1255;48.716;9.124;2023-05-07T07:54:36;4.53;;;3.00;;
2488;SDS011;1255;48.716;9.124;2023-05-07T07:57:03;2.90;;;2.70;;
2488;SDS011;1255;48.716;9.124;2023-05-07T07:59:29;3.27;;;2.97;;
2488;SDS011;1255;48.716;9.124;2023-05-07T08:01:57;4.03;;;2.20;;
2488;SDS011;1255;48.716;9.124;2023-05-07T08:04:24;2.70;;;2.50;;
2488;SDS011;1255;48.716;9.124;2023-05-07T08:06:51;2.70;;;2.50;;
2488;SDS011;1255;48.716;9.124;2023-05-07T08:09:19;2.83;;;2.63;;
2488;SDS011;1255;48.716;9.124;2023-05-07T08:11:45;3.40;;;3.10;;
2488;SDS011;1255;48.716;9.124;2023-05-07T08:14:12;3.40;;;3.00;;
2488;SDS011;1255;48.716;9.124;2023-05-07T08:16:40;2.93;;;2.70;;
2488;SDS011;1255;48.716;9.124;2023-05-07T08:19:08;2.47;;;2.27;;
2488;SDS011;1255;48.716;9.124;2023-05-07T08:21:38;3.20;;;2.90;;
2488;SDS011;1255;48.716;9.124;2023-05-07T08:24:05;3.50;;;3.20;;
2488;SDS011;1255;48.716;9.124;2023-05-07T08:26:32;2.80;;;2.60;;
2488;SDS011;1255;48.716;9.124;2023-05-07T08:29:00;3.17;;;2.87;;
2488;SDS011;1255;48.716;9.124;2023-05-07T08:31:27;3.00;;;2.80;;
2488;SDS011;1255;48.716;9.124;2023-05-07T08:33:54;2.60;;;2.40;;
2488;SDS011;1255;48.716;9.124;2023-05-07T08:36:22;2.90;;;2.70;;
2488;SDS011;1255;48.716;9.124;2023-05-07T08:38:49;2.70;;;2.50;;
2488;SDS011;1255;48.716;9.124;2023-05-07T08:41:15;2.90;;;2.53;;
2488;SDS011;1255;48.716;9.124;2023-05-07T08:43:42;3.27;;;2.97;;
2488;SDS011;1255;48.716;9.124;2023-05-07T08:46:13;2.37;;;2.17;;
2488;SDS011;1255;48.716;9.124;2023-05-07T08:48:43;2.30;;;2.10;;
2488;SDS011;1255;48.716;9.124;2023-05-07T08:51:12;3.37;;;3.07;;
2488;SDS011;1255;48.716;9.124;2023-05-07T08:53:41;2.73;;;2.53;;
2488;SDS011;1255;48.716;9.124;2023-05-07T08:56:08;2.57;;;2.37;;
2488;SDS011;1255;48.716;9.124;2023-05-07T08:58:35;3.50;;;2.13;;
2488;SDS011;1255;48.716;9.124;2023-05-07T09:01:03;3.20;;;2.90;;
2488;SDS011;1255;48.716;9.124;2023-05-07T09:03:34;2.33;;;2.13;;
2488;SDS011;1255;48.716;9.124;2023-05-07T09:06:02;2.70;;;2.50;;
2488;SDS011;1255;48.716;9.124;2023-05-07T09:08:29;3.03;;;2.73;;
2488;SDS011;1255;48.716;9.124;2023-05-07T09:10:59;2.83;;;2.63;;
2488;SDS011;1255;48.716;9.124;2023-05-07T09:13:27;2.80;;;2.10;;
2488;SDS011;1255;48.716;9.124;2023-05-07T09:15:54;2.53;;;2.33;;
2488;SDS011;1255;48.716;9.124;2023-05-07T09:18:21;4.00;;;3.60;;
2488;SDS011;1255;48.716;9.124;2023-05-07T09:20:49;3.40;;;3.10;;
2488;SDS011;1255;48.716;9.124;2023-05-07T09:23:17;2.40;;;2.20;;
2488;SDS011;1255;48.716;9.124;2023-05-07T09:25:43;2.73;;;2.53;;
2488;SDS011;1255;48.716;9.124;2023-05-07T09:28:11;2.30;;;1.97;;
2488;SDS011;1255;48.716;9.124;2023-05-07T09:30:38;2.30;;;2.10;;
2488;SDS011;1255;48.716;9.124;2023-05-07T09:33:05;2.40;;;2.17;;
2488;SDS011;1255;48.716;9.124;2023-05-07T09:35:31;3.13;;;2.10;;
2488;SDS011;1255;48.716;9.124;2023-05-07T09:37:59;2.80;;;2.27;;
2488;SDS011;1255;48.716;9.124;2023-05-07T09:40:27;2.60;;;2.40;;
2488;SDS011;1255;48.716;9.124;2023-05-07T09:42:55;3.83;;;3.43;;
2488;SDS011;1255;48.716;9.124;2023-05-07T09:45:23;2.50;;;2.30;;
2488;SDS011;1255;48.716;9.124;2023-05-07T09:47:53;2.60;;;2.40;;
2488;SDS011;1255;48.716;9.124;2023-05-07T09:50:22;2.17;;;2.00;;
2488;SDS011;1255;48.716;9.124;2023-05-07T09:52:53;2.43;;;2.23;;
2488;SDS011;1255;48.716;9.124;2023-05-07T09:55:21;2.40;;;2.20;;
2488;SDS011;1255;48.716;9.124;2023-05-07T09:57:48;3.17;;;2.27;;
2488;SDS011;1255;48.716;9.124;2023-05-07T10:00:17;2.10;;;1.90;;
2488;SDS011;1255;48.716;9.124;2023-05-07T10:02:47;2.27;;;2.07;;
2488;SDS011;1255;48.716;9.124;2023-05-07T10:05:17;2.70;;;2.00;;
2488;SDS011;1255;48.716;9.124;2023-05-07T10:07:44;2.90;;;1.93;;
2488;SDS011;1255;48.716;9.124;2023-05-07T10:10:12;2.60;;;2.00;;
2488;SDS011;1255;48.716;9.124;2023-05-07T10:12:40;2.20;;;2.00;;
2488;SDS011;1255;48.716;9.124;2023-05-07T10:15:08;2.70;;;2.20;;
2488;SDS011;1255;48.716;9.124;2023-05-07T10:17:39;2.17;;;1.97;;
2488;SDS011;1255;48.716;9.124;2023-05-07T10:20:08;2.30;;;2.10;;
2488;SDS011;1255;48.716;9.124;2023-05-07T10:22:37;2.60;;;2.40;;
2488;SDS011;1255;48.716;9.124;2023-05-07T10:25:09;2.40;;;2.20;;
2488;SDS011;1255;48.716;9.124;2023-05-07T10:27:42;3.07;;;2.00;;
2488;SDS011;1255;48.716;9.124;2023-05-07T10:30:13;1.67;;;1.57;;
2488;SDS011;1255;48.716;9.124;2023-05-07T10:32:47;2.10;;;2.00;;
2488;SDS011;1255;48.716;9.124;2023-05-07T10:35:19;2.10;;;2.00;;
2488;SDS011;1255;48.716;9.124;2023-05-07T10:37:48;3.03;;;1.90;;
2488;SDS011;1255;48.716;9.124;2023-05-07T10:40:16;1.93;;;1.83;;
2488;SDS011;1255;48.716;9.124;2023-05-07T10:42:54;1.90;;;1.77;;
2488;SDS011;1255;48.716;9.124;2023-05-07T10:45:22;2.20;;;2.00;;
2488;SDS011;1255;48.716;9.124;2023-05-07T10:48:06;2.10;;;1.90;;
2488;SDS011;1255;48.716;9.124;2023-05-07T10:50:36;2.90;;;2.10;;
2488;SDS011;1255;48.716;9.124;2023-05-07T10:53:23;3.40;;;2.10;;
2488;SDS011;1255;48.716;9.124;2023-05-07T10:58:50;2.50;;;1.80;;
2488;SDS011;1255;48.716;9.124;2023-05-07T11:01:19;1.83;;;1.70;;
2488;SDS011;1255;48.716;9.124;2023-05-07T11:04:16;2.40;;;2.20;;
2488;SDS011;1255;48.716;9.124;2023-05-07T11:09:55;2.07;;;1.93;;
2488;SDS011;1255;48.716;9.124;2023-05-07T11:18:02;2.03;;;1.83;;
2488;SDS011;1255;48.716;9.124;2023-05-07T11:26:25;2.30;;;2.10;;
2488;SDS011;1255;48.716;9.124;2023-05-07T11:28:53;2.33;;;2.10;;
2488;SDS011;1255;48.716;9.124;2023-05-07T11:31:21;2.90;;;1.83;;
2488;SDS011;1255;48.716;9.124;2023-05-07T11:33:51;3.00;;;2.10;;
2488;SDS011;1255;48.716;9.124;2023-05-07T11:36:18;1.80;;;1.70;;
2488;SDS011;1255;48.716;9.124;2023-05-07T11:38:46;2.73;;;2.13;;
2488;SDS011;1255;48.716;9.124;2023-05-07T11:41:15;2.30;;;2.03;;
2488;SDS011;1255;48.716;9.124;2023-05-07T11:43:54;2.77;;;2.53;;
2488;SDS011;1255;48.716;9.124;2023-05-07T11:46:22;1.97;;;1.80;;
2488;SDS011;1255;48.716;9.124;2023-05-07T11:48:48;2.10;;;1.90;;
2488;SDS011;1255;48.716;9.124;2023-05-07T11:51:18;2.00;;;1.80;;
2488;SDS011;1255;48.716;9.124;2023-05-07T11:53:45;3.83;;;2.20;;
2488;SDS011;1255;48.716;9.124;2023-05-07T11:56:13;2.10;;;1.90;;
2488;SDS011;1255;48.716;9.124;2023-05-07T11:58:42;7.30;;;5.70;;
2488;SDS011;1255;48.716;9.124;2023-05-07T12:01:09;3.23;;;2.93;;
2488;SDS011;1255;48.716;9.124;2023-05-07T12:03:37;2.50;;;2.30;;
2488;SDS011;1255;48.716;9.124;2023-05-07T12:06:07;2.60;;;2.40;;
2488;SDS011;1255;48.716;9.124;2023-05-07T12:08:36;3.87;;;2.23;;
2488;SDS011;1255;48.716;9.124;2023-05-07T12:11:03;2.53;;;2.33;;
2488;SDS011;1255;48.716;9.124;2023-05-07T12:13:34;2.37;;;2.07;;
2488;SDS011;1255;48.716;9.124;2023-05-07T12:16:00;2.13;;;1.93;;
2488;SDS011;1255;48.716;9.124;2023-05-07T12:18:29;1.80;;;1.67;;
2488;SDS011;1255;48.716;9.124;2023-05-07T12:20:56;2.33;;;1.93;;
2488;SDS011;1255;48.716;9.124;2023-05-07T12:23:23;1.90;;;1.80;;
2488;SDS011;1255;48.716;9.124;2023-05-07T12:25:49;4.60;;;2.43;;
2488;SDS011;1255;48.716;9.124;2023-05-07T12:28:17;1.90;;;1.30;;
2488;SDS011;1255;48.716;9.124;2023-05-07T12:30:47;2.17;;;1.83;;
2488;SDS011;1255;48.716;9.124;2023-05-07T12:33:15;1.77;;;1.60;;
2488;SDS011;1255;48.716;9.124;2023-05-07T12:35:43;1.40;;;1.30;;
2488;SDS011;1255;48.716;9.124;2023-05-07T12:38:11;1.43;;;1.13;;
2488;SDS011;1255;48.716;9.124;2023-05-07T12:40:38;1.60;;;1.30;;
2488;SDS011;1255;48.716;9.124;2023-05-07T12:43:06;4.70;;;1.53;;
2488;SDS011;1255;48.716;9.124;2023-05-07T12:45:36;1.77;;;1.67;;
2488;SDS011;1255;48.716;9.124;2023-05-07T12:48:05;3.90;;;1.70;;
2488;SDS011;1255;48.716;9.124;2023-05-07T12:50:32;1.83;;;1.30;;
2488;SDS011;1255;48.716;9.124;2023-05-07T12:52:59;2.00;;;1.27;;
2488;SDS011;1255;48.716;9.124;2023-05-07T12:55:30;2.03;;;1.30;;
2488;SDS011;1255;48.716;9.124;2023-05-07T12:58:00;2.43;;;1.87;;
2488;SDS011;1255;48.716;9.124;2023-05-07T13:00:34;1.50;;;1.40;;
2488;SDS011;1255;48.716;9.124;2023-05-07T13:03:02;1.50;;;1.40;;
2488;SDS011;1255;48.716;9.124;2023-05-07T13:05:30;1.40;;;1.20;;
2488;SDS011;1255;48.716;9.124;2023-05-07T13:07:57;2.07;;;1.97;;
2488;SDS011;1255;48.716;9.124;2023-05-07T13:10:24;1.63;;;1.53;;
2488;SDS011;1255;48.716;9.124;2023-05-07T13:12:51;1.50;;;1.40;;
2488;SDS011;1255;48.716;9.124;2023-05-07T13:15:18;1.57;;;1.20;;
2488;SDS011;1255;48.716;9.124;2023-05-07T13:17:45;1.30;;;1.13;;
2488;SDS011;1255;48.716;9.124;2023-05-07T13:20:12;1.73;;;1.43;;
2488;SDS011;1255;48.716;9.124;2023-05-07T13:22:40;2.10;;;1.80;;
2488;SDS011;1255;48.716;9.124;2023-05-07T13:25:07;1.47;;;1.27;;
2488;SDS011;1255;48.716;9.124;2023-05-07T13:27:34;1.53;;;1.00;;
2488;SDS011;1255;48.716;9.124;2023-05-07T13:30:01;1.40;;;1.30;;
2488;SDS011;1255;48.716;9.124;2023-05-07T13:32:29;1.50;;;1.17;;
2488;SDS011;1255;48.716;9.124;2023-05-07T13:34:56;2.13;;;1.20;;
2488;SDS011;1255;48.716;9.124;2023-05-07T13:37:23;1.30;;;1.20;;
2488;SDS011;1255;48.716;9.124;2023-05-07T13:39:51;1.83;;;1.20;;
2488;SDS011;1255;48.716;9.124;2023-05-07T13:42:18;1.40;;;1.30;;
2488;SDS011;1255;48.716;9.124;2023-05-07T13:44:44;1.10;;;1.00;;
2488;SDS011;1255;48.716;9.124;2023-05-07T13:47:12;1.50;;;1.30;;
2488;SDS011;1255;48.716;9.124;2023-05-07T13:49:39;4.00;;;1.60;;
2488;SDS011;1255;48.716;9.124;2023-05-07T13:52:06;1.90;;;1.70;;
2488;SDS011;1255;48.716;9.124;2023-05-07T13:54:32;1.97;;;1.77;;
2488;SDS011;1255;48.716;9.124;2023-05-07T13:57:00;3.73;;;2.10;;
2488;SDS011;1255;48.716;9.124;2023-05-07T13:59:27;2.63;;;1.50;;
2488;SDS011;1255;48.716;9.124;2023-05-07T14:01:54;2.50;;;2.00;;
2488;SDS011;1255;48.716;9.124;2023-05-07T14:04:21;2.77;;;2.23;;
2488;SDS011;1255;48.716;9.124;2023-05-07T14:06:47;2.93;;;2.10;;
2488;SDS011;1255;48.716;9.124;2023-05-07T14:09:14;2.63;;;2.10;;
2488;SDS011;1255;48.716;9.124;2023-05-07T14:11:41;2.17;;;1.90;;
2488;SDS011;1255;48.716;9.124;2023-05-07T14:14:09;2.67;;;2.00;;
2488;SDS011;1255;48.716;9.124;2023-05-07T14:16:36;2.23;;;1.77;;
2488;SDS011;1255;48.716;9.124;2023-05-07T14:19:03;2.30;;;2.10;;
2488;SDS011;1255;48.716;9.124;2023-05-07T14:21:29;2.80;;;2.27;;
2488;SDS011;1255;48.716;9.124;2023-05-07T14:23:56;2.57;;;2.10;;
2488;SDS011;1255;48.716;9.124;2023-05-07T14:26:25;2.67;;;2.13;;
2488;SDS011;1255;48.716;9.124;2023-05-07T14:28:52;6.40;;;2.30;;
2488;SDS011;1255;48.716;9.124;2023-05-07T14:31:23;3.60;;;2.20;;
2488;SDS011;1255;48.716;9.124;2023-05-07T14:33:50;4.17;;;2.37;;
2488;SDS011;1255;48.716;9.124;2023-05-07T14:36:17;2.67;;;2.00;;
2488;SDS011;1255;48.716;9.124;2023-05-07T14:38:46;2.50;;;2.20;;
2488;SDS011;1255;48.716;9.124;2023-05-07T14:41:13;2.23;;;2.03;;
2488;SDS011;1255;48.716;9.124;2023-05-07T14:43:39;2.83;;;2.20;;
2488;SDS011;1255;48.716;9.124;2023-05-07T14:46:06;2.40;;;2.20;;
2488;SDS011;1255;48.716;9.124;2023-05-07T14:48:34;1.57;;;1.47;;
2488;SDS011;1255;48.716;9.124;2023-05-07T14:51:01;2.60;;;2.03;;
2488;SDS011;1255;48.716;9.124;2023-05-07T14:53:27;1.90;;;1.70;;
2488;SDS011;1255;48.716;9.124;2023-05-07T14:55:54;2.20;;;1.80;;
2488;SDS011;1255;48.716;9.124;2023-05-07T14:58:21;2.80;;;2.33;;
2488;SDS011;1255;48.716;9.124;2023-05-07T15:00:48;3.40;;;2.20;;
2488;SDS011;1255;48.716;9.124;2023-05-07T15:03:14;3.70;;;2.20;;
2488;SDS011;1255;48.716;9.124;2023-05-07T15:05:43;3.70;;;2.00;;
2488;SDS011;1255;48.716;9.124;2023-05-07T15:08:10;3.07;;;1.93;;
2488;SDS011;1255;48.716;9.124;2023-05-07T15:10:38;2.97;;;2.23;;
2488;SDS011;1255;48.716;9.124;2023-05-07T15:13:06;1.80;;;1.70;;
2488;SDS011;1255;48.716;9.124;2023-05-07T15:15:33;2.30;;;2.10;;
2488;SDS011;1255;48.716;9.124;2023-05-07T15:18:00;2.43;;;2.23;;
2488;SDS011;1255;48.716;9.124;2023-05-07T15:20:27;3.83;;;2.20;;
2488;SDS011;1255;48.716;9.124;2023-05-07T15:22:55;3.47;;;2.30;;
2488;SDS011;1255;48.716;9.124;2023-05-07T15:25:22;4.10;;;1.73;;
2488;SDS011;1255;48.716;9.124;2023-05-07T15:27:48;4.40;;;2.00;;
2488;SDS011;1255;48.716;9.124;2023-05-07T15:30:16;4.77;;;2.20;;
2488;SDS011;1255;48.716;9.124;2023-05-07T15:32:45;3.17;;;2.43;;
2488;SDS011;1255;48.716;9.124;2023-05-07T15:35:12;2.23;;;2.03;;
2488;SDS011;1255;48.716;9.124;2023-05-07T15:37:38;2.03;;;1.80;;